Flight Track Log - Related Links

Times and Time Zones

All times are in EST time to prevent confusion due to time zone crossing. See the EJA831 flight status page for this flight to view local times or setup timezone preferences in your user account.

Time Position Orientation Groundspeed Altitude Reporting Facility
EST Latitude Longitude Course Direction KTS MPH feet Rate Location/Type
Mon 12:05:09 PM 26.7542 -80.0183 329° Northwest 287 330 6,700  Level Miami Center
Mon 12:06:09 PM 26.7900 -80.1006 296° West 238 274 10,000 2,950 Climbing Miami Center
Mon 12:07:09 PM 26.8172 -80.1922 288° West 265 305 12,600 1,950 Climbing Miami Center
Mon 12:08:09 PM 26.8486 -80.2839 291° West 293 337 13,900 1,500 Climbing Miami Center
Mon 12:09:00 PM 27.3736 -80.1741 329° Northwest  Level Estimated
Mon 12:09:09 PM 26.9133 -80.3650 312° West 314 361 15,600  Level Miami Center
Mon 12:10:09 PM 27.0000 -80.4072 337° Northwest 350 403 17,800 2,250 Climbing Miami Center
Mon 12:11:09 PM 27.0908 -80.4472 339° North 345 397 20,100 1,750 Climbing Miami Center
Mon 12:12:09 PM 27.1714 -80.4825 339° North 345 397 21,300 1,350 Climbing Miami Center
Mon 12:13:09 PM 27.2644 -80.5253 338° Northwest 345 397 22,800 1,500 Climbing Miami Center
Mon 12:14:09 PM 27.3594 -80.5678 338° Northwest 360 414 24,300 1,400 Climbing Miami Center
Mon 12:15:09 PM 27.4564 -80.6131 337° Northwest 365 420 25,600 1,350 Climbing Miami Center
Mon 12:16:09 PM 27.5553 -80.6561 339° North 370 426 27,000 1,350 Climbing Miami Center
Mon 12:17:09 PM 27.6564 -80.7017 338° Northwest 370 426 28,300 1,350 Climbing Miami Center
Mon 12:18:09 PM 27.7553 -80.7497 337° Northwest 380 437 29,700 1,650 Climbing Miami Center
Mon 12:19:09 PM 27.8689 -80.7981 339° North 387 445 31,600 1,750 Climbing Miami Center
Mon 12:20:09 PM 27.9658 -80.8414 338° Northwest 387 445 33,200 1,650 Climbing Miami Center
Mon 12:21:09 PM 28.0628 -80.8825 339° North 381 438 34,900 1,800 Climbing Miami Center
Mon 12:22:09 PM 28.1511 -80.9256 337° Northwest 369 425 36,800 1,400 Climbing Miami Center
Mon 12:23:09 PM 28.2397 -80.9667 338° Northwest 354 407 37,700 1,050 Climbing Miami Center
Mon 12:24:09 PM 28.3306 -81.0075 338° Northwest 354 407 38,900 1,450 Climbing Miami Center
Mon 12:25:09 PM 28.4211 -81.0486 338° Northwest 349 402 40,600 1,008 Climbing Miami Center
Mon 12:26:14 PM 28.5131 -81.0972 335° Northwest 354 407 41,000 190 Climbing Jacksonville Center
Mon 12:27:15 PM 28.5950 -81.1333 339° North 349 402 41,000  Level Jacksonville Center
Mon 12:28:14 PM 28.6914 -81.1767 338° Northwest 355 409 41,000  Level Jacksonville Center
Mon 12:29:14 PM 28.7903 -81.2247 337° Northwest 369 425 41,000  Level Jacksonville Center
Mon 12:30:14 PM 28.8911 -81.2706 338° Northwest 379 436 41,000  Level Jacksonville Center
Mon 12:31:14 PM 28.9939 -81.3186 338° Northwest 390 449 41,000  Level Jacksonville Center
Mon 12:32:14 PM 29.0947 -81.3647 338° Northwest 390 449 41,000  Level Jacksonville Center
Mon 12:33:14 PM 29.1975 -81.4131 338° Northwest 395 455 41,000  Level Jacksonville Center
Mon 12:34:14 PM 29.2961 -81.4614 337° Northwest 390 449 41,000  Level Jacksonville Center
Mon 12:35:14 PM 29.3967 -81.5078 338° Northwest 390 449 41,000  Level Jacksonville Center
Mon 12:36:15 PM 29.4997 -81.5564 338° Northwest 390 449 41,000  Level Jacksonville Center
Mon 12:37:15 PM 29.6003 -81.6050 337° Northwest 395 455 41,000  Level Jacksonville Center
Mon 12:38:15 PM 29.7031 -81.6517 338° Northwest 395 455 41,000  Level Jacksonville Center
Mon 12:39:15 PM 29.8036 -81.7006 337° Northwest 395 455 41,000  Level Jacksonville Center
Mon 12:40:15 PM 29.9044 -81.7472 338° Northwest 395 455 41,000  Level Jacksonville Center
Mon 12:41:14 PM 30.0050 -81.7942 338° Northwest 395 455 41,000  Level Jacksonville Center
Mon 12:42:14 PM 30.1119 -81.8408 339° North 395 455 41,000  Level Jacksonville Center
Mon 12:43:15 PM 30.2186 -81.8781 343° North 400 460 41,000  Level Jacksonville Center
Mon 12:44:14 PM 30.3397 -81.8697 North 415 478 41,000  Level Jacksonville Center
Mon 12:45:14 PM 30.4606 -81.8539 North 415 478 41,000  Level Jacksonville Center
Mon 12:46:14 PM 30.5983 -81.8378 North 431 496 41,000  Level Jacksonville Center
Mon 12:47:14 PM 30.7194 -81.8294 North 441 507 41,000  Level Jacksonville Center
Mon 12:48:15 PM 30.8383 -81.8425 355° North 436 502 41,000  Level Jacksonville Center
Mon 12:49:14 PM 30.9575 -81.8558 355° North 436 502 41,000  Level Jacksonville Center
Mon 12:50:14 PM 31.0767 -81.8689 355° North 431 496 41,000  Level Jacksonville Center
Mon 12:51:14 PM 31.1936 -81.8797 355° North 416 479 41,000  Level Jacksonville Center
Mon 12:52:15 PM 31.3128 -81.8956 354° North 423 487 41,000  Level Jacksonville Center
Mon 12:53:14 PM 31.4300 -81.9089 354° North 424 488 41,000  Level Jacksonville Center
Mon 12:54:14 PM 31.5386 -81.9200 355° North 432 497 41,000  Level Jacksonville Center
Mon 12:55:14 PM 31.6703 -81.9356 354° North 432 497 41,000  Level Jacksonville Center
Mon 12:56:14 PM 31.7789 -81.9492 354° North 432 497 41,000  Level Jacksonville Center
Mon 12:57:14 PM 31.9106 -81.9600 356° North 427 491 41,000  Level Jacksonville Center
Mon 12:58:14 PM 32.0275 -81.9761 353° North 427 491 41,000  Level Jacksonville Center
Mon 01:00:13 PM 32.2619 -82.0003 355° North 439 505 41,000  Level Atlanta Center
Mon 01:01:13 PM 32.3811 -82.0147 354° North 439 505 41,000  Level Atlanta Center
Mon 01:02:13 PM 32.5003 -82.0267 355° North 434 499 41,000  Level Atlanta Center
Mon 01:03:13 PM 32.6194 -82.0389 355° North 429 494 41,000  Level Atlanta Center
Mon 01:04:13 PM 32.7261 -82.0486 356° North 424 488 41,000  Level Atlanta Center
Mon 01:05:13 PM 32.8472 -82.0483 360° North 424 488 41,000  Level Atlanta Center
Mon 01:06:13 PM 32.9681 -82.0408 North 424 488 41,000  Level Atlanta Center
Mon 01:07:13 PM 33.0911 -82.0306 North 429 494 41,000  Level Atlanta Center
Mon 01:08:13 PM 33.2100 -82.0228 North 429 494 41,000  Level Atlanta Center
Mon 01:09:13 PM 33.3308 -82.0100 North 429 494 41,000 450 Level Atlanta Center
Mon 01:10:13 PM 33.4497 -81.9997 North 429 494 41,900 950 Climbing Atlanta Center
Mon 01:11:13 PM 33.5642 -81.9919 North 417 480 42,900 550 Climbing Atlanta Center
Mon 01:12:13 PM 33.6811 -81.9817 North 411 473 43,000 50 Climbing Atlanta Center
Mon 01:13:13 PM 33.7978 -81.9739 North 411 473 43,000  Level Atlanta Center
Mon 01:14:13 PM 33.9186 -81.9636 North 417 480 43,000  Level Atlanta Center
Mon 01:15:13 PM 34.0542 -81.9528 North 433 498 43,000  Level Atlanta Center
Mon 01:16:13 PM 34.1772 -81.9447 North 433 498 43,000  Level Atlanta Center
Mon 01:17:13 PM 34.3000 -81.9342 North 438 504 43,000  Level Atlanta Center
Mon 01:18:13 PM 34.4211 -81.9261 North 438 504 43,000  Level Atlanta Center
Mon 01:19:13 PM 34.5439 -81.9153 North 438 504 43,000 -450 Level Atlanta Center
Mon 01:20:13 PM 34.6628 -81.9125 North 438 504 42,100 -950 Descending Atlanta Center
Mon 01:21:13 PM 34.7836 -81.9017 North 433 498 41,100 -1,050 Descending Atlanta Center
Mon 01:22:13 PM 34.9006 -81.8961 North 428 493 40,000 -1,050 Descending Atlanta Center
Mon 01:23:13 PM 35.0192 -81.8856 North 422 486 39,000 -1,100 Descending Atlanta Center
Mon 01:24:13 PM 35.1381 -81.8747 North 422 486 37,800 -1,350 Descending Atlanta Center
Mon 01:25:13 PM 35.2608 -81.8639 North 422 486 36,300 -1,250 Descending Atlanta Center
Mon 01:26:13 PM 35.3817 -81.8531 North 427 491 35,300 -650 Descending Atlanta Center
Mon 01:27:13 PM 35.5047 -81.8447 North 427 491 35,000 -450 Descending Atlanta Center
Mon 01:28:13 PM 35.6317 -81.8336 North 442 509 34,400 -1,150 Descending Atlanta Center
Mon 01:29:13 PM 35.7628 -81.8200 North 452 520 32,700 -1,500 Descending Atlanta Center
Mon 01:30:13 PM 35.8942 -81.8086 North 458 527 31,400 -850 Descending Atlanta Center
Mon 01:31:13 PM 36.0233 -81.8000 North 464 534 31,000 -400 Descending Atlanta Center
Mon 01:32:13 PM 36.1544 -81.7861 North 464 534 30,600 -550 Descending Atlanta Center
Mon 01:33:13 PM 36.2856 -81.7747 North 464 534 29,900 -1,150 Descending Atlanta Center
Mon 01:34:13 PM 36.4169 -81.7658 North 464 534 28,300 -1,700 Descending Atlanta Center
Mon 01:35:13 PM 36.5333 -81.7522 North 464 534 26,500 -1,387 Descending Atlanta Center
Mon 01:37:19 PM 36.8064 -81.7292 North 454 522 24,000 -798 Descending Indianapolis Center
Mon 01:38:21 PM 36.9331 -81.7186 North 457 526 24,000  Level Indianapolis Center
Mon 01:39:22 PM 37.0567 -81.7089 North 449 517 24,000 -390 Level Indianapolis Center
Mon 01:40:24 PM 37.1814 -81.6981 North 448 516 23,200 -1,258 Descending Indianapolis Center
Mon 01:41:26 PM 37.3186 -81.6872 North 427 491 21,400 -1,610 Descending Indianapolis Center
Mon 01:42:27 PM 37.4381 -81.6758 North 429 494 19,900 -1,659 Descending Indianapolis Center
Mon 01:43:29 PM 37.5547 -81.6669 North 422 486 18,000 -1,951 Descending Indianapolis Center
Mon 01:44:30 PM 37.6661 -81.6575 North 405 466 15,900 -2,390 Descending Indianapolis Center
Mon 01:45:32 PM 37.7708 -81.6481 North 384 442 13,100 -2,274 Descending Indianapolis Center
Mon 01:46:34 PM 37.8706 -81.6383 North 359 413 11,200 -1,512 Descending Indianapolis Center
Mon 01:47:35 PM 37.9586 -81.5900 23° Northeast 362 417 10,000 -1,415 Descending Indianapolis Center
Mon 01:48:37 PM 38.0319 -81.5314 32° Northeast 317 365 8,300 -1,597 Descending Indianapolis Center
Mon 01:49:39 PM 38.1022 -81.4761 32° Northeast 300 345 6,700 -1,122 Descending Indianapolis Center
Mon 01:50:40 PM 38.1858 -81.4167 29° Northeast 289 333 6,000 -341 Descending Indianapolis Center
Mon 01:51:42 PM 38.2489 -81.3689 31° Northeast 269 310 6,000 -97 Level Indianapolis Center
Mon 01:52:44 PM 38.3064 -81.3381 23° Northeast 238 274 5,800 -484 Descending Indianapolis Center
Mon 01:53:46 PM 38.3647 -81.3508 350° North 216 249 5,000 -1,024 Descending Indianapolis Center
Mon 01:54:47 PM 38.4247 -81.3794 340° North 224 258 3,700 -976 Descending Indianapolis Center
Mon 01:55:49 PM 38.4819 -81.4169 333° Northwest 230 265 3,000 -532 Descending Indianapolis Center
Mon 01:56:51 PM 38.4619 -81.4700 244° Southwest 196 226 2,600 -244 Descending Indianapolis Center
Mon 01:57:52 PM 38.4314 -81.5142 229° Southwest 176 203 2,500 -390 Descending Indianapolis Center
Mon 01:58:54 PM 38.4094 -81.5447 227° Southwest 138 159 1,800 -634 Descending Indianapolis Center
Mon 01:59:55 PM 38.3900 -81.5744 230° Southwest 117 135 1,200 -590 Descending Indianapolis Center

Login

Don't have an account? Register now (free) for customized features, flight alerts, and more!